Time;durP1;ratioP1;P1;durP2;ratioP2;P2;SDS_P1;SDS_P2;PMS_P1;PMS_P2;Temp;Humidity;BMP_temperature;BMP_pressure;BME280_temperature;BME280_humidity;BME280_pressure;Samples;Min_cycle;Max_cycle;Signal;HPM_P1;HPM_P2
2022/11/08 00:01:58;;;;;;;9.85;2.33;;;;;;;11.30;100.00;100937.09;5163958;28;20022;-72
2022/11/08 00:04:29;;;;;;;10.50;3.10;;;;;;;11.32;100.00;100941.25;5163994;28;20081;-72
2022/11/08 00:15:26;;;;;;;11.88;2.50;;;;;;;11.15;100.00;100939.59;5151552;28;20049;-73
2022/11/08 00:17:57;;;;;;;17.35;3.13;;;;;;;11.10;100.00;100934.72;5162866;28;20524;-73
2022/11/08 00:20:27;;;;;;;11.38;3.25;;;;;;;11.09;100.00;100927.69;5163393;28;20030;-73
2022/11/08 00:22:58;;;;;;;12.90;2.75;;;;;;;11.11;100.00;100924.84;5163660;28;20437;-73
2022/11/08 00:25:28;;;;;;;12.50;2.80;;;;;;;11.12;100.00;100924.66;5171211;28;20108;-72
2022/11/08 00:27:59;;;;;;;12.73;2.70;;;;;;;11.21;100.00;100927.34;5152399;28;20089;-74
2022/11/08 00:30:29;;;;;;;14.57;2.22;;;;;;;11.27;100.00;100918.59;5163005;28;20034;-73
2022/11/08 00:33:00;;;;;;;15.63;3.28;;;;;;;11.24;100.00;100913.56;5152516;28;20106;-73
2022/11/08 00:35:30;;;;;;;10.45;2.50;;;;;;;11.16;100.00;100914.44;5163512;28;20113;-73
2022/11/08 00:38:02;;;;;;;5.93;2.25;;;;;;;11.19;100.00;100907.88;5162874;28;20022;-72
2022/11/08 00:40:33;;;;;;;15.60;2.65;;;;;;;11.18;100.00;100903.50;5163418;28;20054;-73
2022/11/08 00:43:04;;;;;;;13.68;2.33;;;;;;;11.13;100.00;100907.53;5163078;28;20402;-73
2022/11/08 00:45:34;;;;;;;10.95;2.42;;;;;;;11.08;100.00;100909.03;5163240;28;20025;-74
2022/11/08 00:48:05;;;;;;;15.13;3.25;;;;;;;11.02;100.00;100905.19;5162738;28;20096;-73
2022/11/08 00:50:39;;;;;;;9.85;2.47;;;;;;;11.01;100.00;100908.88;5178353;28;20021;-73
2022/11/08 00:53:09;;;;;;;10.90;3.47;;;;;;;10.97;100.00;100901.34;5163492;28;20441;-74
2022/11/08 00:55:40;;;;;;;5.60;2.30;;;;;;;10.85;100.00;100901.66;5163204;28;20030;-73
2022/11/08 00:58:10;;;;;;;11.70;3.00;;;;;;;10.80;100.00;100895.97;5162987;28;20097;-74
2022/11/08 01:00:41;;;;;;;7.38;2.47;;;;;;;10.75;100.00;100892.94;5163419;28;20109;-73
2022/11/08 01:03:17;;;;;;;14.27;2.83;;;;;;;10.70;100.00;100889.06;5163181;28;20023;-73
2022/11/08 01:05:49;;;;;;;11.07;2.85;;;;;;;10.72;100.00;100895.09;5163112;28;20034;-74
2022/11/08 01:08:22;;;;;;;11.30;2.55;;;;;;;10.73;100.00;100886.03;5162100;28;20038;-74
2022/11/08 01:10:53;;;;;;;13.23;2.75;;;;;;;10.68;100.00;100883.84;5178281;28;20026;-73
2022/11/08 01:13:23;;;;;;;10.68;2.55;;;;;;;10.68;100.00;100889.22;5162799;28;20052;-73
2022/11/08 01:15:53;;;;;;;10.52;2.60;;;;;;;10.64;100.00;100882.50;5163176;28;20029;-73
2022/11/08 01:18:24;;;;;;;8.20;2.70;;;;;;;10.64;100.00;100885.19;5162495;28;20533;-74
2022/11/08 01:20:54;;;;;;;9.68;2.80;;;;;;;10.67;100.00;100884.88;5162710;28;20160;-73
2022/11/08 01:23:25;;;;;;;10.30;2.72;;;;;;;10.65;100.00;100875.31;5162869;28;20418;-73
2022/11/08 01:25:55;;;;;;;15.60;2.90;;;;;;;10.66;100.00;100877.84;5161883;28;20496;-73
2022/11/08 01:28:26;;;;;;;10.10;2.70;;;;;;;10.69;100.00;100882.84;5150282;28;20034;-73
2022/11/08 01:30:56;;;;;;;13.95;3.03;;;;;;;10.74;100.00;100876.97;5177539;28;20015;-73
2022/11/08 01:33:27;;;;;;;14.90;3.40;;;;;;;10.71;100.00;100871.97;5151885;28;20121;-73
2022/11/08 01:35:57;;;;;;;11.10;3.08;;;;;;;10.74;100.00;100869.78;5163041;28;20023;-74
2022/11/08 01:38:28;;;;;;;10.05;2.30;;;;;;;10.75;100.00;100865.28;5162139;28;20030;-74
2022/11/08 01:40:58;;;;;;;13.10;2.70;;;;;;;10.72;100.00;100857.53;5164053;28;20035;-74
2022/11/08 01:43:28;;;;;;;9.77;2.80;;;;;;;10.69;100.00;100852.50;5166299;28;20104;-75
2022/11/08 01:46:15;;;;;;;13.43;2.50;;;;;;;10.65;100.00;100841.28;5166438;28;20088;-74
2022/11/08 01:48:59;;;;;;;9.98;2.35;;;;;;;10.67;100.00;100831.22;5165936;28;20030;-75
2022/11/08 01:51:34;;;;;;;13.05;2.92;;;;;;;10.70;100.00;100828.19;5166987;28;20077;-75
2022/11/08 01:54:10;;;;;;;4.43;2.00;;;;;;;10.70;100.00;100822.00;5166209;28;20035;-74
2022/11/08 01:56:41;;;;;;;13.48;2.85;;;;;;;10.72;100.00;100817.28;5166469;28;20018;-74
2022/11/08 01:59:16;;;;;;;6.57;2.30;;;;;;;10.70;100.00;100808.59;5165940;28;20033;-75
2022/11/08 02:01:47;;;;;;;;;;;;;;;10.64;100.00;100799.34;5166805;28;20018;-75
2022/11/08 02:04:17;;;;;;;10.10;2.60;;;;;;;10.67;100.00;100795.50;5167271;28;19909;-75
2022/11/08 02:06:49;;;;;;;11.77;2.17;;;;;;;10.65;100.00;100779.56;5166401;28;20030;-75
2022/11/08 02:09:20;;;;;;;10.60;2.30;;;;;;;10.60;100.00;100782.75;5166708;28;20030;-74
2022/11/08 02:11:52;;;;;;;10.00;2.70;;;;;;;10.58;100.00;100786.59;5166625;28;20409;-74
2022/11/08 02:14:22;;;;;;;10.98;2.97;;;;;;;10.59;100.00;100778.41;5166824;28;20026;-74
2022/11/08 02:16:53;;;;;;;11.15;2.60;;;;;;;10.57;100.00;100775.03;5165670;28;20285;-74
2022/11/08 02:19:48;;;;;;;14.98;2.80;;;;;;;10.58;100.00;100760.59;5166845;28;20030;-74
2022/11/08 02:22:31;;;;;;;10.00;2.40;;;;;;;10.60;100.00;100768.50;5166488;28;20547;-75
2022/11/08 02:25:02;;;;;;;16.42;3.47;;;;;;;10.58;100.00;100754.41;5165827;28;20026;-74
2022/11/08 02:27:32;;;;;;;12.48;2.70;;;;;;;10.51;100.00;100751.56;5152684;28;20390;-74
2022/11/08 02:30:03;;;;;;;8.88;2.65;;;;;;;10.50;100.00;100741.03;5166209;28;20026;-74
2022/11/08 02:32:41;;;;;;;9.35;2.80;;;;;;;10.47;100.00;100744.88;5155290;28;20054;-75
2022/11/08 02:35:16;;;;;;;9.25;2.08;;;;;;;10.45;100.00;100748.72;5166628;28;20022;-75
2022/11/08 02:37:47;;;;;;;8.20;3.00;;;;;;;10.41;100.00;100742.84;5180241;28;20030;-75
2022/11/08 02:40:17;;;;;;;5.93;2.05;;;;;;;10.34;100.00;100742.69;5166186;28;20026;-74
2022/11/08 02:42:48;;;;;;;9.55;2.35;;;;;;;10.35;100.00;100739.00;5166113;28;20026;-73
2022/11/08 02:45:18;;;;;;;10.63;2.30;;;;;;;10.37;100.00;100742.34;5165667;28;20022;-74
2022/11/08 02:47:54;;;;;;;7.68;2.33;;;;;;;10.30;100.00;100736.00;5165457;28;20065;-74
2022/11/08 02:50:24;;;;;;;11.50;2.55;;;;;;;10.26;100.00;100734.63;5165244;28;20061;-74
2022/11/08 02:53:00;;;;;;;8.43;2.60;;;;;;;10.23;100.00;100732.25;5164881;28;20026;-74
2022/11/08 02:55:36;;;;;;;8.95;3.72;;;;;;;10.24;100.00;100741.16;5165680;28;20030;-74
2022/11/08 02:58:07;;;;;;;6.20;2.40;;;;;;;10.17;100.00;100727.56;5165216;28;20037;-75
2022/11/08 03:00:38;;;;;;;8.98;2.35;;;;;;;10.16;100.00;100720.53;5165039;28;20026;-74
2022/11/08 03:03:09;;;;;;;6.78;2.20;;;;;;;10.12;100.00;100714.66;5165537;28;20026;-73
2022/11/08 03:05:42;;;;;;;4.07;1.80;;;;;;;10.17;100.00;100710.63;5165555;28;20019;-74
2022/11/08 03:08:13;;;;;;;7.53;2.88;;;;;;;10.17;100.00;100705.28;5164681;28;20097;-73
2022/11/08 03:10:43;;;;;;;5.57;2.13;;;;;;;10.12;100.00;100701.25;5165640;28;20035;-74
2022/11/08 03:13:14;;;;;;;11.32;2.60;;;;;;;10.15;100.00;100708.13;5163473;28;20042;-74
2022/11/08 03:15:44;;;;;;;14.00;3.03;;;;;;;10.14;100.00;100701.09;5165444;28;20037;-74
2022/11/08 03:18:16;;;;;;;12.80;2.50;;;;;;;10.09;100.00;100703.41;5164778;28;20030;-74
2022/11/08 03:20:46;;;;;;;8.63;2.40;;;;;;;10.01;100.00;100690.88;5165071;28;20022;-73
2022/11/08 03:23:17;;;;;;;6.65;2.20;;;;;;;9.97;100.00;100665.41;5165093;28;20046;-74
2022/11/08 03:25:47;;;;;;;13.10;2.47;;;;;;;9.97;100.00;100662.72;5174245;28;20064;-73
2022/11/08 03:28:18;;;;;;;8.60;2.47;;;;;;;10.05;100.00;100659.22;5164291;28;20030;-74
2022/11/08 03:30:50;;;;;;;7.22;2.35;;;;;;;10.02;100.00;100657.69;5164552;28;20485;-74
2022/11/08 03:33:21;;;;;;;5.53;2.28;;;;;;;10.02;100.00;100638.09;5154048;28;20105;-74
2022/11/08 03:35:52;;;;;;;13.13;2.92;;;;;;;9.96;100.00;100636.94;5164605;28;20022;-74
2022/11/08 03:38:23;;;;;;;7.05;2.67;;;;;;;9.94;100.00;100635.41;5164242;28;20031;-75
2022/11/08 03:40:53;;;;;;;7.20;2.47;;;;;;;9.93;100.00;100628.38;5164803;28;20389;-75
2022/11/08 03:43:25;;;;;;;9.30;2.50;;;;;;;9.93;100.00;100620.34;5163457;28;20045;-74
2022/11/08 03:45:55;;;;;;;9.57;2.17;;;;;;;9.92;100.00;100622.19;5165030;28;20034;-74
2022/11/08 03:48:26;;;;;;;9.52;2.15;;;;;;;9.84;100.00;100606.97;5163608;28;20512;-74
2022/11/08 03:50:56;;;;;;;8.38;2.17;;;;;;;9.88;100.00;100601.25;5163116;28;20385;-75
2022/11/08 03:53:27;;;;;;;8.70;2.28;;;;;;;9.88;100.00;100595.88;5179657;28;20030;-74
2022/11/08 03:55:59;;;;;;;9.77;2.13;;;;;;;9.84;100.00;100593.56;5164558;28;20437;-71
2022/11/08 03:58:29;;;;;;;12.77;2.50;;;;;;;9.88;100.00;100596.72;5163798;28;20026;-73
2022/11/08 04:01:04;;;;;;;5.28;2.00;;;;;;;9.89;100.00;100582.34;5164109;28;20018;-73
2022/11/08 04:03:35;;;;;;;8.90;2.38;;;;;;;9.88;100.00;100577.97;5164257;28;20030;-73
2022/11/08 04:06:06;;;;;;;6.60;2.10;;;;;;;9.92;100.00;100568.59;5164422;28;20030;-73
2022/11/08 04:08:36;;;;;;;5.80;1.83;;;;;;;9.90;100.00;100556.38;5163530;28;20030;-73
2022/11/08 04:16:44;;;;;;;7.80;2.00;;;;;;;9.95;100.00;100556.72;5164049;28;20027;-73
2022/11/08 04:22:05;;;;;;;5.10;2.00;;;;;;;9.93;100.00;100569.41;5163614;28;20386;-73
2022/11/08 04:24:36;;;;;;;5.82;1.60;;;;;;;9.95;100.00;100565.59;5164372;28;20030;-73
2022/11/08 04:27:06;;;;;;;8.32;2.30;;;;;;;9.95;100.00;100562.91;5162754;28;20089;-73
2022/11/08 04:29:37;;;;;;;8.30;3.38;;;;;;;9.94;100.00;100568.41;5161301;28;20022;-73
2022/11/08 04:32:07;;;;;;;4.03;1.83;;;;;;;9.97;100.00;100558.19;5154225;28;20105;-73
2022/11/08 04:34:38;;;;;;;8.60;1.95;;;;;;;9.92;100.00;100551.69;5162201;28;20390;-73
2022/11/08 04:37:08;;;;;;;6.05;1.90;;;;;;;9.88;100.00;100551.16;5163381;28;20029;-73
2022/11/08 04:39:38;;;;;;;8.02;3.45;;;;;;;9.89;100.00;100550.19;5163474;28;20014;-73
2022/11/08 04:42:09;;;;;;;5.53;2.00;;;;;;;9.86;100.00;100550.50;5163668;28;20029;-73
2022/11/08 04:44:39;;;;;;;4.65;1.90;;;;;;;9.78;100.00;100548.66;5163280;28;20100;-73
2022/11/08 04:47:10;;;;;;;5.95;2.10;;;;;;;9.80;100.00;100548.50;5163000;28;20030;-73
2022/11/08 04:49:40;;;;;;;6.22;1.75;;;;;;;9.84;100.00;100542.66;5163839;28;20022;-73
2022/11/08 04:52:11;;;;;;;3.63;1.95;;;;;;;9.83;100.00;100542.81;5162102;28;20552;-73
2022/11/08 04:54:43;;;;;;;7.10;2.22;;;;;;;9.81;100.00;100548.34;5163619;28;20481;-73
2022/11/08 04:57:15;;;;;;;7.68;1.60;;;;;;;9.92;100.00;100549.84;5162547;28;20116;-73
2022/11/08 04:59:45;;;;;;;6.05;1.48;;;;;;;9.91;100.00;100545.47;5163475;28;20026;-73
2022/11/08 05:02:16;;;;;;;5.05;1.70;;;;;;;9.81;100.00;100542.16;5163262;28;20022;-73
2022/11/08 05:04:46;;;;;;;8.35;1.90;;;;;;;9.77;100.00;100543.47;5163467;28;20518;-72
2022/11/08 05:07:17;;;;;;;7.40;1.83;;;;;;;9.77;100.00;100532.75;5162971;28;20027;-73
2022/11/08 05:09:47;;;;;;;4.68;1.50;;;;;;;9.81;100.00;100542.16;5163151;28;20116;-73
2022/11/08 05:12:18;;;;;;;5.43;1.50;;;;;;;9.86;100.00;100534.44;5163536;28;20058;-73
2022/11/08 05:14:48;;;;;;;9.27;1.85;;;;;;;9.88;100.00;100529.72;5163597;28;20022;-73
2022/11/08 05:17:18;;;;;;;7.43;1.75;;;;;;;10.01;100.00;100518.50;5166108;28;20023;-73
2022/11/08 05:25:27;;;;;;;5.20;1.70;;;;;;;10.19;100.00;100539.72;5175719;28;20460;-73
2022/11/08 05:27:57;;;;;;;7.07;1.38;;;;;;;10.23;100.00;100528.50;5156158;28;20105;-73
2022/11/08 05:30:28;;;;;;;8.55;1.48;;;;;;;10.30;100.00;100526.00;5166966;28;20027;-73
2022/11/08 05:32:58;;;;;;;2.58;1.30;;;;;;;10.33;100.00;100525.66;5156506;28;20033;-73
2022/11/08 05:35:29;;;;;;;7.30;1.73;;;;;;;10.29;100.00;100527.00;5167462;28;20065;-73
2022/11/08 05:37:59;;;;;;;7.25;1.40;;;;;;;10.33;100.00;100525.66;5166586;28;20030;-73
2022/11/08 05:40:31;;;;;;;6.30;2.33;;;;;;;10.32;100.00;100523.97;5166970;28;20030;-73
2022/11/08 05:43:01;;;;;;;5.00;1.60;;;;;;;10.25;100.00;100521.16;5166763;28;20022;-73
2022/11/08 05:45:32;;;;;;;7.57;1.98;;;;;;;10.28;100.00;100526.16;5166753;28;20104;-73
2022/11/08 05:48:03;;;;;;;7.82;1.85;;;;;;;10.28;100.00;100533.38;5166467;28;20113;-73
2022/11/08 05:50:35;;;;;;;6.35;2.05;;;;;;;10.31;100.00;100525.00;5166701;28;20030;-73
2022/11/08 05:53:05;;;;;;;4.55;1.58;;;;;;;10.35;100.00;100527.16;5165804;28;20501;-72
2022/11/08 05:55:35;;;;;;;4.35;1.80;;;;;;;10.32;100.00;100532.84;5166196;28;20050;-73
2022/11/08 05:58:07;;;;;;;7.65;1.65;;;;;;;10.32;100.00;100513.25;5166139;28;20474;-73
2022/11/08 06:00:37;;;;;;;5.35;1.60;;;;;;;10.34;100.00;100525.50;5166635;28;20030;-73
2022/11/08 06:03:08;;;;;;;3.38;1.58;;;;;;;10.31;100.00;100517.78;5166580;28;20010;-73
2022/11/08 06:05:38;;;;;;;5.03;1.60;;;;;;;10.37;100.00;100503.69;5166618;28;20081;-73
2022/11/08 06:08:08;;;;;;;5.05;1.50;;;;;;;10.44;100.00;100503.84;5165412;28;20533;-73
2022/11/08 06:10:39;;;;;;;9.20;1.40;;;;;;;10.47;100.00;100506.16;5166528;28;20505;-73
2022/11/08 06:13:09;;;;;;;5.93;1.52;;;;;;;10.50;100.00;100495.09;5165073;28;20100;-73
2022/11/08 06:15:40;;;;;;;6.03;2.53;;;;;;;10.59;100.00;100511.97;5166480;28;20481;-73
2022/11/08 06:18:10;;;;;;;3.88;1.60;;;;;;;10.61;100.00;100502.75;5165802;28;20109;-73
2022/11/08 06:20:41;;;;;;;6.00;1.77;;;;;;;10.65;100.00;100499.72;5166094;28;20018;-73
2022/11/08 06:23:11;;;;;;;2.63;1.40;;;;;;;10.61;100.00;100502.75;5166213;28;20038;-73
2022/11/08 06:25:41;;;;;;;6.43;1.80;;;;;;;10.56;100.00;100494.41;5175579;28;20060;-73
2022/11/08 06:28:13;;;;;;;4.13;1.58;;;;;;;10.54;100.00;100515.19;5153055;28;20120;-73
2022/11/08 06:30:44;;;;;;;4.65;1.83;;;;;;;10.47;100.00;100506.16;5181042;28;20041;-73
2022/11/08 06:33:14;;;;;;;2.95;1.60;;;;;;;10.50;100.00;100505.81;5154712;28;20886;-73
2022/11/08 06:35:46;;;;;;;4.70;1.73;;;;;;;10.48;100.00;100510.50;5166093;28;20485;-73
2022/11/08 06:38:16;;;;;;;3.22;1.50;;;;;;;10.49;100.00;100517.56;5165488;28;20034;-73
2022/11/08 06:40:47;;;;;;;2.55;1.55;;;;;;;10.54;100.00;100522.38;5165835;28;20049;-73
2022/11/08 06:43:18;;;;;;;5.63;1.50;;;;;;;10.60;100.00;100529.75;5165886;28;20026;-73
2022/11/08 06:45:48;;;;;;;4.90;1.85;;;;;;;10.64;100.00;100533.75;5165228;28;20103;-73
2022/11/08 06:48:19;;;;;;;4.35;2.03;;;;;;;10.63;100.00;100522.19;5165262;28;20504;-72
2022/11/08 06:50:49;;;;;;;6.82;2.28;;;;;;;10.65;100.00;100530.06;5165829;28;20377;-73
2022/11/08 06:53:20;;;;;;;5.10;1.95;;;;;;;10.63;100.00;100526.72;5165703;28;20394;-73
2022/11/08 06:55:50;;;;;;;10.10;1.95;;;;;;;10.60;100.00;100538.63;5165374;28;20406;-73
2022/11/08 06:58:21;;;;;;;2.78;1.63;;;;;;;10.71;100.00;100537.41;5164801;28;20032;-73
2022/11/08 07:00:51;;;;;;;5.25;1.92;;;;;;;10.77;100.00;100543.94;5165650;28;20110;-73
2022/11/08 07:03:22;;;;;;;4.15;1.50;;;;;;;10.82;100.00;100531.66;5180561;28;20015;-73
2022/11/08 07:05:52;;;;;;;4.22;1.70;;;;;;;10.85;100.00;100525.94;5164241;28;20045;-73
2022/11/08 07:08:23;;;;;;;4.00;1.58;;;;;;;10.89;100.00;100527.28;5164396;28;20494;-73
2022/11/08 07:10:53;;;;;;;4.15;1.92;;;;;;;10.91;100.00;100520.88;5165305;28;20553;-73
2022/11/08 07:13:24;;;;;;;4.15;1.70;;;;;;;10.89;100.00;100519.22;5165136;28;20035;-73
2022/11/08 07:15:59;;;;;;;4.13;1.20;;;;;;;10.94;100.00;100517.84;5165238;28;20101;-73
2022/11/08 07:18:29;;;;;;;;;;;;;;;11.02;100.00;100515.13;5165110;28;20033;-73
2022/11/08 07:21:01;;;;;;;2.83;1.42;;;;;;;11.03;100.00;100512.25;5164660;28;19909;-73
2022/11/08 07:23:32;;;;;;;3.47;1.40;;;;;;;11.10;100.00;100521.28;5165167;28;20027;-73
2022/11/08 07:26:04;;;;;;;4.13;1.80;;;;;;;11.21;100.00;100527.25;5162886;28;20551;-74
2022/11/08 07:28:35;;;;;;;4.00;1.35;;;;;;;11.34;100.00;100514.03;5153454;28;20397;-73
2022/11/08 07:31:07;;;;;;;5.88;1.73;;;;;;;11.35;100.00;100518.44;5163449;28;20022;-73
2022/11/08 07:33:38;;;;;;;6.45;1.48;;;;;;;11.41;100.00;100504.28;5155002;28;20114;-73
2022/11/08 07:36:09;;;;;;;5.68;1.95;;;;;;;11.44;100.00;100509.28;5165131;28;20109;-73
2022/11/08 07:38:39;;;;;;;3.60;1.60;;;;;;;11.48;100.00;100512.44;5163595;28;20412;-73
2022/11/08 07:41:10;;;;;;;7.32;1.70;;;;;;;11.50;100.00;100505.88;5164595;28;20426;-73
2022/11/08 07:43:40;;;;;;;3.28;1.10;;;;;;;11.66;100.00;100523.72;5164778;28;20057;-73
2022/11/08 07:46:11;;;;;;;6.90;1.70;;;;;;;11.80;100.00;100520.22;5163876;28;20056;-73
2022/11/08 07:48:41;;;;;;;4.63;2.03;;;;;;;11.82;100.00;100526.28;5164108;28;20109;-73
2022/11/08 07:51:12;;;;;;;7.28;3.70;;;;;;;11.85;100.00;100512.50;5164403;28;20023;-73
2022/11/08 07:53:43;;;;;;;4.60;1.80;;;;;;;11.83;100.00;100516.38;5164136;28;20034;-74
2022/11/08 07:56:14;;;;;;;4.97;1.65;;;;;;;11.92;100.00;100529.53;5164854;28;20114;-74
2022/11/08 07:58:44;;;;;;;5.03;1.35;;;;;;;12.02;100.00;100550.78;5163390;28;20416;-73
2022/11/08 08:01:15;;;;;;;3.05;1.65;;;;;;;11.99;100.00;100539.56;5164391;28;20033;-73
2022/11/08 08:03:45;;;;;;;4.30;1.42;;;;;;;11.97;100.00;100533.53;5164152;28;20122;-73
2022/11/08 08:06:16;;;;;;;4.45;1.80;;;;;;;12.03;100.00;100524.75;5164338;28;20041;-73
2022/11/08 08:08:46;;;;;;;3.40;1.63;;;;;;;12.06;100.00;100521.69;5163364;28;20023;-73
2022/11/08 08:11:17;;;;;;;4.80;1.95;;;;;;;12.09;100.00;100524.81;5163948;28;20030;-73
2022/11/08 08:13:48;;;;;;;2.85;1.60;;;;;;;12.10;100.00;100521.16;5163984;28;20026;-74
2022/11/08 08:16:18;;;;;;;6.55;2.13;;;;;;;12.11;100.00;100517.44;5163786;28;20057;-73
2022/11/08 08:18:49;;;;;;;7.40;1.90;;;;;;;12.16;100.00;100528.47;5163480;28;20152;-73
2022/11/08 08:21:19;;;;;;;2.50;1.40;;;;;;;12.27;100.00;100529.03;5163469;28;20031;-73
2022/11/08 08:23:50;;;;;;;5.18;1.98;;;;;;;12.32;100.00;100526.63;5164054;28;20054;-73
2022/11/08 08:26:20;;;;;;;2.85;1.67;;;;;;;12.37;100.00;100518.84;5160789;28;20118;-73
2022/11/08 08:28:51;;;;;;;4.63;2.08;;;;;;;12.39;100.00;100538.28;5154704;28;20026;-73
2022/11/08 08:31:21;;;;;;;7.65;1.80;;;;;;;12.42;100.00;100532.56;5160407;28;20027;-73
2022/11/08 08:33:52;;;;;;;7.35;1.85;;;;;;;12.59;100.00;100527.81;5155730;28;20033;-74
2022/11/08 08:36:22;;;;;;;3.40;1.73;;;;;;;12.73;100.00;100548.50;5163734;28;20402;-73
2022/11/08 08:38:53;;;;;;;7.32;2.58;;;;;;;12.96;100.00;100537.59;5163173;28;20109;-74
2022/11/08 08:41:23;;;;;;;5.78;2.40;;;;;;;13.21;100.00;100536.25;5163765;28;20022;-74
2022/11/08 08:43:54;;;;;;;4.55;2.10;;;;;;;13.37;100.00;100529.78;5163644;28;20463;-73
2022/11/08 08:46:25;;;;;;;7.10;2.38;;;;;;;13.30;100.00;100530.72;5161808;28;20363;-74
2022/11/08 08:48:55;;;;;;;5.38;1.60;;;;;;;13.14;100.00;100518.31;5163277;28;20037;-74
2022/11/08 08:51:25;;;;;;;5.25;1.92;;;;;;;13.06;100.00;100524.66;5162588;28;20536;-73
2022/11/08 08:53:57;;;;;;;6.05;2.15;;;;;;;13.03;100.00;100510.75;5163370;28;20041;-73
2022/11/08 08:56:28;;;;;;;5.30;1.73;;;;;;;12.99;100.00;100514.84;5162282;28;20401;-73
2022/11/08 08:58:58;;;;;;;3.95;1.65;;;;;;;12.99;100.00;100507.59;5163005;28;20023;-73
2022/11/08 09:01:28;;;;;;;6.78;1.73;;;;;;;13.01;100.00;100508.25;5163488;28;20053;-73
2022/11/08 09:03:59;;;;;;;4.50;1.65;;;;;;;13.02;100.00;100506.38;5163370;28;20031;-73
2022/11/08 09:06:29;;;;;;;4.07;1.98;;;;;;;13.09;100.00;100502.72;5163168;28;20026;-73
2022/11/08 09:09:00;;;;;;;5.93;1.80;;;;;;;13.30;100.00;100506.50;5163035;28;20041;-73
2022/11/08 09:11:30;;;;;;;6.15;2.03;;;;;;;13.60;100.00;100508.00;5163073;28;20113;-73
2022/11/08 09:14:01;;;;;;;8.13;1.30;;;;;;;13.92;100.00;100513.88;5163512;28;20028;-73
2022/11/08 09:16:31;;;;;;;9.95;2.05;;;;;;;14.06;100.00;100515.66;5163286;28;20509;-74
2022/11/08 09:19:02;;;;;;;3.72;1.90;;;;;;;14.07;100.00;100511.09;5163369;28;20437;-74
2022/11/08 09:21:32;;;;;;;6.10;1.48;;;;;;;13.89;100.00;100522.34;5163062;28;20030;-73
2022/11/08 09:24:03;;;;;;;5.32;1.65;;;;;;;13.84;100.00;100520.25;5163073;28;20477;-74
2022/11/08 09:26:33;;;;;;;4.97;1.77;;;;;;;13.90;100.00;100540.19;5157905;28;20170;-73
2022/11/08 09:29:04;;;;;;;4.57;1.50;;;;;;;14.14;100.00;100537.06;5156339;28;20037;-73
2022/11/08 09:31:34;;;;;;;5.38;1.90;;;;;;;14.45;100.00;100535.78;5147457;28;20105;-73
2022/11/08 09:34:05;;;;;;;6.78;1.90;;;;;;;14.65;100.00;100546.72;5157748;28;20088;-73
2022/11/08 09:36:35;;;;;;;5.45;1.80;;;;;;;14.62;100.00;100544.44;5162594;28;20039;-74
2022/11/08 09:39:06;;;;;;;3.95;1.67;;;;;;;14.52;100.00;100534.03;5162860;28;20038;-73
2022/11/08 09:42:11;;;;;;;3.35;1.95;;;;;;;14.31;100.00;100531.34;5163346;28;20026;-73
2022/11/08 09:44:58;;;;;;;8.73;1.80;;;;;;;14.00;100.00;100535.28;5151050;28;20023;-74
2022/11/08 09:47:41;;;;;;;2.55;1.30;;;;;;;14.10;100.00;100525.00;5162386;28;20022;-74
2022/11/08 09:50:27;;;;;;;4.18;1.40;;;;;;;13.98;100.00;100521.19;5163220;28;20390;-73
2022/11/08 09:52:57;;;;;;;;;;;;;;;13.97;100.00;100541.09;5163065;28;20037;-73
2022/11/08 09:55:37;;;;;;;6.68;2.47;;;;;;;13.89;100.00;100543.94;5162899;28;19914;-73
2022/11/08 09:58:33;;;;;;;4.30;1.50;;;;;;;13.97;100.00;100544.63;5162339;28;20130;-73
2022/11/08 10:01:04;;;;;;;9.60;1.98;;;;;;;14.04;100.00;100543.84;5162981;28;20030;-73
2022/11/08 10:03:34;;;;;;;3.63;1.48;;;;;;;14.18;100.00;100532.13;5165698;28;20029;-74
2022/11/08 10:06:31;;;;;;;5.45;2.00;;;;;;;14.30;100.00;100530.53;5166696;28;20496;-73
2022/11/08 10:09:19;;;;;;;;;;;;;;;14.32;100.00;100552.75;5154708;28;20030;-73
2022/11/08 10:12:08;;;;;;;9.50;1.65;;;;;;;14.45;100.00;100552.00;5165990;28;19910;-73
2022/11/08 10:14:48;;;;;;;5.50;2.25;;;;;;;14.38;100.00;100554.66;5166466;28;20029;-73
2022/11/08 10:17:38;;;;;;;5.47;2.00;;;;;;;14.29;100.00;100552.31;5165914;28;20026;-73
2022/11/08 10:20:24;;;;;;;3.80;1.63;;;;;;;14.22;100.00;100554.97;5165950;28;20553;-73
2022/11/08 10:23:16;;;;;;;4.50;1.67;;;;;;;14.22;100.00;100566.59;5166292;28;20065;-74
2022/11/08 10:25:51;;;;;;;4.75;1.50;;;;;;;14.20;100.00;100565.94;5166158;28;20181;-73
2022/11/08 10:28:27;;;;;;;6.97;1.85;;;;;;;14.24;100.00;100564.53;5153084;28;20030;-73
2022/11/08 10:30:58;;;;;;;5.07;2.17;;;;;;;14.20;100.00;100557.84;5166016;28;20092;-74
2022/11/08 10:33:34;;;;;;;9.57;2.35;;;;;;;14.24;100.00;100552.91;5155690;28;20018;-73
2022/11/08 10:36:19;;;;;;;3.63;1.90;;;;;;;14.18;100.00;100551.81;5166055;28;20141;-73
2022/11/08 10:39:15;;;;;;;2.70;1.83;;;;;;;14.29;100.00;100558.53;5165019;28;20026;-73
2022/11/08 10:42:01;;;;;;;3.58;1.45;;;;;;;14.34;100.00;100552.56;5162911;28;20038;-73
2022/11/08 10:44:32;;;;;;;;;;;;;;;14.40;100.00;100540.97;5154014;28;20413;-74
2022/11/08 10:47:05;;;;;;;6.57;1.90;;;;;;;14.45;100.00;100542.03;5165365;28;19913;-73
2022/11/08 10:49:40;;;;;;;6.25;1.73;;;;;;;14.55;100.00;100536.31;5165567;28;20022;-73
2022/11/08 10:52:10;;;;;;;4.50;1.70;;;;;;;14.65;100.00;100536.75;5165543;28;20026;-74
2022/11/08 10:54:49;;;;;;;3.88;1.67;;;;;;;14.61;100.00;100529.25;5165719;28;20034;-73
2022/11/08 10:57:31;;;;;;;5.07;1.60;;;;;;;14.63;100.00;100524.50;5165212;28;20034;-74
2022/11/08 11:00:16;;;;;;;6.55;1.75;;;;;;;14.76;100.00;100530.00;5165196;28;20041;-73
2022/11/08 11:02:50;;;;;;;8.02;1.52;;;;;;;14.80;100.00;100535.78;5165573;28;20545;-73
2022/11/08 11:05:31;;;;;;;7.53;1.60;;;;;;;14.89;100.00;100530.03;5165201;28;20097;-74
2022/11/08 11:08:08;;;;;;;6.72;1.90;;;;;;;14.86;100.00;100508.84;5164492;28;20089;-74
2022/11/08 11:10:48;;;;;;;7.55;1.73;;;;;;;14.83;100.00;100509.22;5165289;28;20023;-74
2022/11/08 11:13:23;;;;;;;7.82;1.58;;;;;;;14.90;100.00;100517.34;5164289;28;20066;-73
2022/11/08 11:15:57;;;;;;;6.38;1.77;;;;;;;14.95;100.00;100517.56;5165517;28;20500;-74
2022/11/08 11:18:45;;;;;;;5.85;1.75;;;;;;;14.89;100.00;100516.50;5164044;28;20030;-74
2022/11/08 11:21:18;;;;;;;3.50;1.88;;;;;;;14.89;100.00;100521.91;5165061;28;20095;-74
2022/11/08 11:24:06;;;;;;;3.17;1.45;;;;;;;14.85;100.00;100520.66;5165183;28;20033;-74
2022/11/08 11:26:43;;;;;;;7.97;1.67;;;;;;;14.90;100.00;100520.03;5175077;28;20516;-74
2022/11/08 11:29:20;;;;;;;5.03;1.45;;;;;;;15.02;100.00;100518.44;5163608;28;20474;-74
2022/11/08 11:31:53;;;;;;;3.90;1.67;;;;;;;14.87;100.00;100520.47;5157748;28;20240;-74
2022/11/08 11:34:34;;;;;;;3.50;1.85;;;;;;;14.87;100.00;100515.91;5161387;28;20053;-74
2022/11/08 11:37:07;;;;;;;5.95;1.63;;;;;;;14.92;100.00;100510.72;5164561;28;20058;-73
2022/11/08 11:40:03;;;;;;;6.28;2.05;;;;;;;14.97;100.00;100502.84;5164541;28;20041;-74
2022/11/08 11:42:50;;;;;;;3.20;1.70;;;;;;;15.00;100.00;100512.38;5164646;28;20094;-74
2022/11/08 11:45:41;;;;;;;3.20;1.88;;;;;;;14.99;100.00;100513.44;5164498;28;20450;-73
2022/11/08 11:48:20;;;;;;;3.90;1.42;;;;;;;15.10;100.00;100503.91;5164253;28;20027;-74
2022/11/08 11:50:51;;;;;;;3.30;1.70;;;;;;;15.15;100.00;100512.22;5164599;28;20026;-74
2022/11/08 11:53:31;;;;;;;8.27;1.90;;;;;;;15.06;100.00;100508.03;5164482;28;20041;-74
2022/11/08 11:56:20;;;;;;;5.82;1.60;;;;;;;15.02;100.00;100521.97;5164303;28;20022;-74
2022/11/08 11:59:11;;;;;;;3.90;1.70;;;;;;;15.06;100.00;100519.72;5164125;28;20054;-74
2022/11/08 12:01:50;;;;;;;4.88;1.60;;;;;;;15.03;100.00;100509.28;5164783;28;20270;-73
2022/11/08 12:04:50;;;;;;;3.35;1.55;;;;;;;15.01;100.00;100506.81;5164130;28;20109;-73
2022/11/08 12:07:28;;;;;;;3.63;1.95;;;;;;;14.94;100.00;100497.84;5162587;28;20097;-73